Meldreth, United Kingdom
Current Conditions -  °F | °C
As of 7:50 PM on Saturday 22 Nov 2014 (Local Time) from EGSC Reporting Station
Scattered Clouds Scattered Clouds  
Wind Chill: 11°   Ceiling: Unl
Heat Index: 11°   Visibility: 4mi
Dew Point: 11°   Wind: 5mph
Humidity: 100%   Direction: 130°SE
Pressure: 29.94"   Gusts: NA
Location:  52.09°N, 0.01°E
Report Text: EGSC 221950Z 13004KT 100V160 7000 SCT024 11/11 Q1014
Loading
Personal Weather Stations






























Interactive Weather Map New forecast layout! Learn more

10-Day Weather Forecast

Advertisements
Track Severe Weather on mobile